createdAt,value
2018-11-10T00:00:56.277Z,10.22
2018-11-10T00:01:56.271Z,10.09
2018-11-10T00:02:56.265Z,10.10
2018-11-10T00:03:56.258Z,10.02
2018-11-10T00:04:56.252Z,9.97
2018-11-10T00:05:56.247Z,10.01
2018-11-10T00:06:56.245Z,10.02
2018-11-10T00:07:56.264Z,10.02
2018-11-10T00:08:56.228Z,9.98
2018-11-10T00:09:56.239Z,9.94
2018-11-10T00:10:56.216Z,9.87
2018-11-10T00:11:56.209Z,9.89
2018-11-10T00:12:56.206Z,9.83
2018-11-10T00:13:56.201Z,9.80
2018-11-10T00:14:56.194Z,9.83
2018-11-10T00:15:56.195Z,9.82
2018-11-10T00:16:56.179Z,9.82
2018-11-10T00:17:56.175Z,9.86
2018-11-10T00:18:56.167Z,9.84
2018-11-10T00:19:56.167Z,9.83
2018-11-10T00:20:56.158Z,9.83
2018-11-10T00:21:56.158Z,9.79
2018-11-10T00:22:56.165Z,9.69
2018-11-10T00:23:56.136Z,9.74
2018-11-10T00:24:56.130Z,9.83
2018-11-10T00:25:56.124Z,9.72
2018-11-10T00:26:56.192Z,9.77
2018-11-10T00:27:56.111Z,9.72
2018-11-10T00:28:56.105Z,9.66
2018-11-10T00:29:56.097Z,9.65
2018-11-10T00:30:56.094Z,9.66
2018-11-10T00:31:56.110Z,9.58
2018-11-10T00:32:56.079Z,9.62
2018-11-10T00:33:56.078Z,9.59
2018-11-10T00:34:56.068Z,9.56
2018-11-10T00:35:56.062Z,9.54
2018-11-10T00:36:56.052Z,9.58
2018-11-10T00:37:56.051Z,9.59
2018-11-10T00:38:56.045Z,9.59
2018-11-10T00:39:56.036Z,9.58
2018-11-10T00:40:56.028Z,9.61
2018-11-10T00:41:56.026Z,9.62
2018-11-10T00:42:56.016Z,9.56
2018-11-10T00:43:56.012Z,9.62
2018-11-10T00:44:56.003Z,9.65
2018-11-10T00:45:56.033Z,9.62
2018-11-10T00:46:55.992Z,9.65
2018-11-10T00:47:55.989Z,9.62
2018-11-10T00:48:55.988Z,9.58
2018-11-10T00:49:55.973Z,9.58
2018-11-10T00:50:55.966Z,9.59
2018-11-10T00:51:55.962Z,9.65
2018-11-10T00:52:55.952Z,9.55
2018-11-10T00:53:55.949Z,9.59
2018-11-10T00:54:55.940Z,9.51
2018-11-10T00:55:55.936Z,9.54
2018-11-10T00:56:55.931Z,9.51
2018-11-10T00:57:55.917Z,9.51
2018-11-10T00:58:55.917Z,9.44
2018-11-10T00:59:55.911Z,9.51
2018-11-10T01:00:55.908Z,9.43
2018-11-10T01:01:55.899Z,9.51
2018-11-10T01:02:55.896Z,9.44
2018-11-10T01:03:55.885Z,9.47
2018-11-10T01:04:55.887Z,9.44
2018-11-10T01:05:55.871Z,9.43
2018-11-10T01:06:55.868Z,9.41
2018-11-10T01:07:55.895Z,9.55
2018-11-10T01:08:55.855Z,9.55
2018-11-10T01:09:55.853Z,9.51
2018-11-10T01:10:55.840Z,9.40
2018-11-10T01:11:55.836Z,9.40
2018-11-10T01:12:55.830Z,9.48
2018-11-10T01:13:55.820Z,9.51
2018-11-10T01:14:55.817Z,9.46
2018-11-10T01:15:55.813Z,9.39
2018-11-10T01:16:55.808Z,9.41
2018-11-10T01:17:55.799Z,9.40
2018-11-10T01:18:55.796Z,9.47
2018-11-10T01:19:55.788Z,9.43
2018-11-10T01:20:55.778Z,9.44
2018-11-10T01:21:55.772Z,9.46
2018-11-10T01:22:55.766Z,9.54
2018-11-10T01:23:55.762Z,9.48
2018-11-10T01:24:55.756Z,9.50
2018-11-10T01:25:55.749Z,9.50
2018-11-10T01:26:55.745Z,9.47
2018-11-10T01:27:55.882Z,9.43
2018-11-10T01:28:55.734Z,9.50
2018-11-10T01:29:55.723Z,9.48
2018-11-10T01:30:55.719Z,9.55
2018-11-10T01:31:55.711Z,9.40
2018-11-10T01:32:55.705Z,9.51
2018-11-10T01:33:55.700Z,9.43
2018-11-10T01:34:55.694Z,9.47
2018-11-10T01:35:55.687Z,9.47
2018-11-10T01:36:55.681Z,9.48
2018-11-10T01:37:55.674Z,9.44
2018-11-10T01:38:55.670Z,9.47
2018-11-10T01:39:55.664Z,9.46
2018-11-10T01:40:55.655Z,9.40
2018-11-10T01:41:55.648Z,9.43
2018-11-10T01:42:55.645Z,9.44
2018-11-10T01:43:55.636Z,9.58
2018-11-10T01:44:55.629Z,9.58
2018-11-10T01:45:55.625Z,9.59
2018-11-10T01:46:55.617Z,9.56
2018-11-10T01:47:55.613Z,9.59
2018-11-10T01:48:55.606Z,9.59
2018-11-10T01:49:55.599Z,9.51
2018-11-10T01:50:55.612Z,9.50
2018-11-10T01:51:55.586Z,9.43
2018-11-10T01:52:55.579Z,9.43
2018-11-10T01:53:55.579Z,9.51
2018-11-10T01:54:55.569Z,9.48
2018-11-10T01:55:55.565Z,9.46
2018-11-10T01:56:55.556Z,9.39
2018-11-10T01:57:55.549Z,9.37
2018-11-10T01:58:55.543Z,9.39
2018-11-10T01:59:55.538Z,9.25
2018-11-10T02:00:55.532Z,9.32
2018-11-10T02:01:55.533Z,9.37
2018-11-10T02:02:55.521Z,9.39
2018-11-10T02:03:55.514Z,9.31
2018-11-10T02:04:55.507Z,9.36
2018-11-10T02:05:55.498Z,9.31
2018-11-10T02:06:55.496Z,9.25
2018-11-10T02:07:55.487Z,9.28
2018-11-10T02:08:55.482Z,9.26
2018-11-10T02:09:55.474Z,9.34
2018-11-10T02:10:55.469Z,9.31
2018-11-10T02:11:55.462Z,9.29
2018-11-10T02:12:55.457Z,9.36
2018-11-10T02:13:55.449Z,9.26
2018-11-10T02:14:55.443Z,9.21
2018-11-10T02:15:55.448Z,9.26
2018-11-10T02:16:55.431Z,9.18
2018-11-10T02:17:55.429Z,9.21
2018-11-10T02:18:55.419Z,9.28
2018-11-10T02:19:55.411Z,9.16
2018-11-10T02:20:55.418Z,9.26
2018-11-10T02:21:55.402Z,9.23
2018-11-10T02:22:55.397Z,9.26
2018-11-10T02:23:55.390Z,9.19
2018-11-10T02:24:55.381Z,9.29
2018-11-10T02:25:55.378Z,9.22
2018-11-10T02:26:55.370Z,9.26
2018-11-10T02:27:55.365Z,9.25
2018-11-10T02:28:55.356Z,9.28
2018-11-10T02:29:55.397Z,9.31
2018-11-10T02:30:55.364Z,9.18
2018-11-10T02:31:55.340Z,9.22
2018-11-10T02:32:55.331Z,9.29
2018-11-10T02:33:55.332Z,9.25
2018-11-10T02:34:55.318Z,9.23
2018-11-10T02:35:55.313Z,9.19
2018-11-10T02:36:55.307Z,9.21
2018-11-10T02:37:55.296Z,9.19
2018-11-10T02:38:55.293Z,9.22
2018-11-10T02:39:55.288Z,9.25
2018-11-10T02:40:55.285Z,9.25
2018-11-10T02:41:55.277Z,9.26
2018-11-10T02:42:55.267Z,9.31
2018-11-10T02:43:55.265Z,9.31
2018-11-10T02:44:55.254Z,9.31
2018-11-10T02:45:55.253Z,9.25
2018-11-10T02:46:55.238Z,9.19
2018-11-10T02:47:55.237Z,9.19
2018-11-10T02:48:55.230Z,9.13
2018-11-10T02:49:55.224Z,9.14
2018-11-10T02:50:55.216Z,9.10
2018-11-10T02:51:55.212Z,9.14
2018-11-10T02:52:55.209Z,9.08
2018-11-10T02:53:55.200Z,9.10
2018-11-10T02:54:55.189Z,9.08
2018-11-10T02:55:55.189Z,9.13
2018-11-10T02:56:55.180Z,8.99
2018-11-10T02:57:55.172Z,8.95
2018-11-10T02:58:55.167Z,9.13
2018-11-10T02:59:55.160Z,9.08
2018-11-10T03:00:55.154Z,9.08
2018-11-10T03:01:55.147Z,9.02
2018-11-10T03:02:55.148Z,9.03
2018-11-10T03:03:55.141Z,9.04
2018-11-10T03:04:55.131Z,9.06
2018-11-10T03:05:55.120Z,9.14
2018-11-10T03:06:55.114Z,9.16
2018-11-10T03:07:55.106Z,9.10
2018-11-10T03:08:55.100Z,9.19
2018-11-10T03:09:55.093Z,9.14
2018-11-10T03:10:55.137Z,9.16
2018-11-10T03:11:55.083Z,9.03
2018-11-10T03:12:55.077Z,9.04
2018-11-10T03:13:55.069Z,9.11
2018-11-10T03:14:55.062Z,9.03
2018-11-10T03:15:55.052Z,9.06
2018-11-10T03:16:55.051Z,9.10
2018-11-10T03:17:55.042Z,9.08
2018-11-10T03:18:55.035Z,9.06
2018-11-10T03:19:55.029Z,9.16
2018-11-10T03:20:55.021Z,9.02
2018-11-10T03:21:55.016Z,9.14
2018-11-10T03:22:55.008Z,9.19
2018-11-10T03:23:55.002Z,9.21
2018-11-10T03:24:54.997Z,9.14
2018-11-10T03:25:54.990Z,9.23
2018-11-10T03:26:54.984Z,9.06
2018-11-10T03:27:54.978Z,9.14
2018-11-10T03:28:54.970Z,9.10
2018-11-10T03:29:54.964Z,9.10
2018-11-10T03:30:54.956Z,9.08
2018-11-10T03:31:54.961Z,9.08
2018-11-10T03:32:54.946Z,8.95
2018-11-10T03:33:54.942Z,9.10
2018-11-10T03:34:54.930Z,9.06
2018-11-10T03:35:54.923Z,9.06
2018-11-10T03:36:54.915Z,9.03
2018-11-10T03:37:54.910Z,9.02
2018-11-10T03:38:54.902Z,8.95
2018-11-10T03:39:54.896Z,8.97
2018-11-10T03:40:54.891Z,8.97
2018-11-10T03:41:54.883Z,8.97
2018-11-10T03:42:54.875Z,9.00
2018-11-10T03:43:54.871Z,9.03
2018-11-10T03:44:54.864Z,8.97
2018-11-10T03:45:54.871Z,9.02
2018-11-10T03:46:54.875Z,8.97
2018-11-10T03:47:54.849Z,8.99
2018-11-10T03:48:54.905Z,8.99
2018-11-10T03:49:54.829Z,8.95
2018-11-10T03:50:54.823Z,8.97
2018-11-10T03:51:54.820Z,8.92
2018-11-10T03:52:54.815Z,8.94
2018-11-10T03:53:54.803Z,9.03
2018-11-10T03:54:54.798Z,9.00
2018-11-10T03:55:54.789Z,8.94
2018-11-10T03:56:54.783Z,9.00
2018-11-10T03:57:54.780Z,9.02
2018-11-10T03:58:54.783Z,9.04
2018-11-10T03:59:54.764Z,9.03
2018-11-10T04:00:54.760Z,9.06
2018-11-10T04:01:54.750Z,8.99
2018-11-10T04:02:54.742Z,8.89
2018-11-10T04:03:54.738Z,8.89
2018-11-10T04:04:54.730Z,8.89
2018-11-10T04:05:54.726Z,8.94
2018-11-10T04:06:54.713Z,8.94
2018-11-10T04:07:54.711Z,8.92
2018-11-10T04:08:54.700Z,8.89
2018-11-10T04:09:54.695Z,8.91
2018-11-10T04:10:54.689Z,8.87
2018-11-10T04:11:54.682Z,8.92
2018-11-10T04:12:54.674Z,8.88
2018-11-10T04:13:54.668Z,9.06
2018-11-10T04:14:54.656Z,8.92
2018-11-10T04:15:54.655Z,8.97
2018-11-10T04:16:54.648Z,9.02
2018-11-10T04:17:54.644Z,9.03
2018-11-10T04:18:54.630Z,9.02
2018-11-10T04:19:54.627Z,8.99
2018-11-10T04:20:54.627Z,9.13
2018-11-10T04:21:54.614Z,9.04
2018-11-10T04:22:54.606Z,9.06
2018-11-10T04:23:54.598Z,9.10
2018-11-10T04:24:54.592Z,9.06
2018-11-10T04:25:54.587Z,9.13
2018-11-10T04:26:54.581Z,8.99
2018-11-10T04:27:54.573Z,9.08
2018-11-10T04:28:54.567Z,9.08
2018-11-10T04:29:54.558Z,9.00
2018-11-10T04:30:54.552Z,9.00
2018-11-10T04:31:54.546Z,8.97
2018-11-10T04:32:54.538Z,8.89
2018-11-10T04:33:54.531Z,8.92
2018-11-10T04:34:54.530Z,8.92
2018-11-10T04:35:54.521Z,8.92
2018-11-10T04:36:54.530Z,8.89
2018-11-10T04:37:54.504Z,8.89
2018-11-10T04:38:54.500Z,8.89
2018-11-10T04:39:54.493Z,8.85
2018-11-10T04:40:54.487Z,8.88
2018-11-10T04:41:54.480Z,8.76
2018-11-10T04:42:54.472Z,8.87
2018-11-10T04:43:54.465Z,8.84
2018-11-10T04:44:54.456Z,8.81
2018-11-10T04:45:54.452Z,8.76
2018-11-10T04:46:54.444Z,8.78
2018-11-10T04:47:54.439Z,8.82
2018-11-10T04:48:54.432Z,8.84
2018-11-10T04:49:54.486Z,8.82
2018-11-10T04:50:54.418Z,8.84
2018-11-10T04:51:54.412Z,8.85
2018-11-10T04:52:54.404Z,8.85
2018-11-10T04:53:54.400Z,8.87
2018-11-10T04:54:54.396Z,8.85
2018-11-10T04:55:54.385Z,8.81
2018-11-10T04:56:54.376Z,8.91
2018-11-10T04:57:54.373Z,8.89
2018-11-10T04:58:54.362Z,8.97
2018-11-10T04:59:54.358Z,8.88
2018-11-10T05:00:54.349Z,8.87
2018-11-10T05:01:54.345Z,8.91
2018-11-10T05:02:54.335Z,8.87
2018-11-10T05:03:54.332Z,8.91
2018-11-10T05:04:54.325Z,8.92
2018-11-10T05:05:54.317Z,8.91
2018-11-10T05:06:54.306Z,8.92
2018-11-10T05:07:54.303Z,8.92
2018-11-10T05:08:54.314Z,8.99
2018-11-10T05:09:54.294Z,8.97
2018-11-10T05:10:54.283Z,9.03
2018-11-10T05:11:54.277Z,9.04
2018-11-10T05:12:54.269Z,8.99
2018-11-10T05:13:54.263Z,8.94
2018-11-10T05:14:54.259Z,9.03
2018-11-10T05:15:54.248Z,8.95
2018-11-10T05:16:54.242Z,9.06
2018-11-10T05:17:54.241Z,9.08
2018-11-10T05:18:54.230Z,9.08
2018-11-10T05:19:54.223Z,9.06
2018-11-10T05:20:54.216Z,9.14
2018-11-10T05:21:54.214Z,9.08
2018-11-10T05:22:54.201Z,9.06
2018-11-10T05:23:54.197Z,9.10
2018-11-10T05:24:54.191Z,9.06
2018-11-10T05:25:54.184Z,9.10
2018-11-10T05:26:54.175Z,9.10
2018-11-10T05:27:54.171Z,9.04
2018-11-10T05:28:54.164Z,9.06
2018-11-10T05:29:54.156Z,9.11
2018-11-10T05:30:54.177Z,9.11
2018-11-10T05:31:54.143Z,9.04
2018-11-10T05:32:54.136Z,9.08
2018-11-10T05:33:54.130Z,9.06
2018-11-10T05:34:54.130Z,9.04
2018-11-10T05:35:54.124Z,9.11
2018-11-10T05:36:54.126Z,9.19
2018-11-10T05:37:54.108Z,9.11
2018-11-10T05:38:54.113Z,9.06
2018-11-10T05:39:54.095Z,9.19
2018-11-10T05:40:54.082Z,9.14
2018-11-10T05:41:54.079Z,9.19
2018-11-10T05:42:54.071Z,9.18
2018-11-10T05:43:54.062Z,9.21
2018-11-10T05:44:54.051Z,9.13
2018-11-10T05:45:54.048Z,9.18
2018-11-10T05:46:54.050Z,9.21
2018-11-10T05:47:54.035Z,9.19
2018-11-10T05:48:54.028Z,9.16
2018-11-10T05:49:54.022Z,9.13
2018-11-10T05:50:54.021Z,9.16
2018-11-10T05:51:54.010Z,9.13
2018-11-10T05:52:54.007Z,9.19
2018-11-10T05:53:53.994Z,9.13
2018-11-10T05:54:53.988Z,9.16
2018-11-10T05:55:53.982Z,9.22
2018-11-10T05:56:54.003Z,9.21
2018-11-10T05:57:53.968Z,9.18
2018-11-10T05:58:53.961Z,9.19
2018-11-10T05:59:53.956Z,9.19
2018-11-10T06:00:53.949Z,9.18
2018-11-10T06:01:53.989Z,9.23
2018-11-10T06:02:53.936Z,9.22
2018-11-10T06:03:53.928Z,9.16
2018-11-10T06:04:53.927Z,9.26
2018-11-10T06:05:53.915Z,9.21
2018-11-10T06:06:53.910Z,9.23
2018-11-10T06:07:53.906Z,9.23
2018-11-10T06:08:53.895Z,9.22
2018-11-10T06:09:54.007Z,9.22
2018-11-10T06:10:53.883Z,9.28
2018-11-10T06:11:53.877Z,9.31
2018-11-10T06:12:53.881Z,9.32
2018-11-10T06:13:53.862Z,9.25
2018-11-10T06:14:53.854Z,9.29
2018-11-10T06:15:53.857Z,9.31
2018-11-10T06:16:53.844Z,9.26
2018-11-10T06:17:53.835Z,9.31
2018-11-10T06:18:53.907Z,9.29
2018-11-10T06:19:53.827Z,9.26
2018-11-10T06:20:53.815Z,9.31
2018-11-10T06:21:53.809Z,9.34
2018-11-10T06:22:53.804Z,9.37
2018-11-10T06:23:53.800Z,9.34
2018-11-10T06:24:53.791Z,9.37
2018-11-10T06:25:53.791Z,9.37
2018-11-10T06:26:53.778Z,9.43
2018-11-10T06:27:53.772Z,9.44
2018-11-10T06:28:53.767Z,9.34
2018-11-10T06:29:53.760Z,9.37
2018-11-10T06:30:53.755Z,9.37
2018-11-10T06:31:53.745Z,9.40
2018-11-10T06:32:53.738Z,9.37
2018-11-10T06:33:53.732Z,9.36
2018-11-10T06:34:53.729Z,9.37
2018-11-10T06:35:53.721Z,9.36
2018-11-10T06:36:53.711Z,9.37
2018-11-10T06:37:53.706Z,9.37
2018-11-10T06:38:53.701Z,9.37
2018-11-10T06:39:53.693Z,9.36
2018-11-10T06:40:53.686Z,9.43
2018-11-10T06:41:53.681Z,9.40
2018-11-10T06:42:53.674Z,9.46
2018-11-10T06:43:53.667Z,9.37
2018-11-10T06:44:53.659Z,9.36
2018-11-10T06:45:53.650Z,9.37
2018-11-10T06:46:53.702Z,9.46
2018-11-10T06:47:53.641Z,9.40
2018-11-10T06:48:53.634Z,9.44
2018-11-10T06:49:53.628Z,9.48
2018-11-10T06:50:53.626Z,9.43
2018-11-10T06:51:53.614Z,9.48
2018-11-10T06:52:53.651Z,9.46
2018-11-10T06:53:53.601Z,9.46
2018-11-10T06:54:53.595Z,9.44
2018-11-10T06:55:53.590Z,9.43
2018-11-10T06:56:53.601Z,9.43
2018-11-10T06:57:53.577Z,9.48
2018-11-10T06:58:53.565Z,9.48
2018-11-10T06:59:53.563Z,9.48
2018-11-10T07:00:53.557Z,9.48
2018-11-10T07:01:53.555Z,9.46
2018-11-10T07:02:53.546Z,9.51
2018-11-10T07:03:53.538Z,9.61
2018-11-10T07:04:53.531Z,9.56
2018-11-10T07:05:53.525Z,9.61
2018-11-10T07:06:53.517Z,9.55
2018-11-10T07:07:53.511Z,9.55
2018-11-10T07:08:53.504Z,9.58
2018-11-10T07:09:53.501Z,9.56
2018-11-10T07:10:53.494Z,9.66
2018-11-10T07:11:53.485Z,9.72
2018-11-10T07:12:53.478Z,9.69
2018-11-10T07:13:53.468Z,9.69
2018-11-10T07:14:53.463Z,9.72
2018-11-10T07:15:53.471Z,9.68
2018-11-10T07:16:53.457Z,9.73
2018-11-10T07:17:53.504Z,9.72
2018-11-10T07:18:53.445Z,9.69
2018-11-10T07:19:53.433Z,9.69
2018-11-10T07:20:53.428Z,9.80
2018-11-10T07:21:53.423Z,9.82
2018-11-10T07:22:53.422Z,9.86
2018-11-10T07:23:53.410Z,9.82
2018-11-10T07:24:53.453Z,9.79
2018-11-10T07:25:53.396Z,9.82
2018-11-10T07:26:53.392Z,9.87
2018-11-10T07:27:53.386Z,9.82
2018-11-10T07:28:53.377Z,9.83
2018-11-10T07:29:53.370Z,9.84
2018-11-10T07:30:53.364Z,9.80
2018-11-10T07:31:53.370Z,9.86
2018-11-10T07:32:53.350Z,9.92
2018-11-10T07:33:53.347Z,9.83
2018-11-10T07:34:53.337Z,9.92
2018-11-10T07:35:53.336Z,9.92
2018-11-10T07:36:53.327Z,9.94
2018-11-10T07:37:53.325Z,9.94
2018-11-10T07:38:53.355Z,9.92
2018-11-10T07:39:53.323Z,9.98
2018-11-10T07:40:53.315Z,10.02
2018-11-10T07:41:53.296Z,10.05
2018-11-10T07:42:53.325Z,9.95
2018-11-10T07:43:53.283Z,9.95
2018-11-10T07:44:53.279Z,9.99
2018-11-10T07:45:53.271Z,10.12
2018-11-10T07:46:53.262Z,10.01
2018-11-10T07:47:53.258Z,10.04
2018-11-10T07:48:53.250Z,10.04
2018-11-10T07:49:53.250Z,10.05
2018-11-10T07:50:53.237Z,9.99
2018-11-10T07:51:53.234Z,10.10
2018-11-10T07:52:53.225Z,10.09
2018-11-10T07:53:53.220Z,10.05
2018-11-10T07:54:53.214Z,10.12
2018-11-10T07:55:53.217Z,10.20
2018-11-10T07:56:53.202Z,10.12
2018-11-10T07:57:53.199Z,10.16
2018-11-10T07:58:53.190Z,10.17
2018-11-10T07:59:53.183Z,10.19
2018-11-10T08:00:53.178Z,10.20
2018-11-10T08:01:53.173Z,10.23
2018-11-10T08:02:53.167Z,10.26
2018-11-10T08:03:53.160Z,10.28
2018-11-10T08:04:53.159Z,10.16
2018-11-10T08:05:53.147Z,10.22
2018-11-10T08:06:53.142Z,10.30
2018-11-10T08:07:53.136Z,10.17
2018-11-10T08:08:53.132Z,10.20
2018-11-10T08:09:53.121Z,10.25
2018-11-10T08:10:53.122Z,10.28
2018-11-10T08:11:53.182Z,10.30
2018-11-10T08:12:53.106Z,10.28
2018-11-10T08:13:53.099Z,10.33
2018-11-10T08:14:53.094Z,10.30
2018-11-10T08:15:53.086Z,10.31
2018-11-10T08:16:53.082Z,10.31
2018-11-10T08:17:53.076Z,10.41
2018-11-10T08:18:53.069Z,10.38
2018-11-10T08:19:53.065Z,10.41
2018-11-10T08:20:53.056Z,10.48
2018-11-10T08:21:53.052Z,10.49
2018-11-10T08:22:53.046Z,10.51
2018-11-10T08:23:53.038Z,10.49
2018-11-10T08:24:53.062Z,10.38
2018-11-10T08:25:53.052Z,10.53
2018-11-10T08:26:53.021Z,10.49
2018-11-10T08:27:53.020Z,10.51
2018-11-10T08:28:53.011Z,10.57
2018-11-10T08:29:53.005Z,10.59
2018-11-10T08:30:52.999Z,10.67
2018-11-10T08:31:52.992Z,10.69
2018-11-10T08:32:52.987Z,10.76
2018-11-10T08:33:52.979Z,10.75
2018-11-10T08:34:52.976Z,10.71
2018-11-10T08:35:52.970Z,10.75
2018-11-10T08:36:52.963Z,10.81
2018-11-10T08:37:52.956Z,10.82
2018-11-10T08:38:52.952Z,10.84
2018-11-10T08:39:52.948Z,10.89
2018-11-10T08:40:52.941Z,10.84
2018-11-10T08:41:52.933Z,10.90
2018-11-10T08:42:52.930Z,10.99
2018-11-10T08:43:52.930Z,10.99
2018-11-10T08:44:52.925Z,10.87
2018-11-10T08:45:52.915Z,10.93
2018-11-10T08:46:52.907Z,11.00
2018-11-10T08:47:52.899Z,11.00
2018-11-10T08:48:52.896Z,10.99
2018-11-10T08:49:52.912Z,10.96
2018-11-10T08:50:52.883Z,11.00
2018-11-10T08:51:52.880Z,10.99
2018-11-10T08:52:52.874Z,11.07
2018-11-10T08:53:52.865Z,11.08
2018-11-10T08:54:52.862Z,11.08
2018-11-10T08:55:52.856Z,11.10
2018-11-10T08:56:52.849Z,11.15
2018-11-10T08:57:52.846Z,11.17
2018-11-10T08:58:52.847Z,11.15
2018-11-10T08:59:52.840Z,11.15
2018-11-10T09:00:52.828Z,11.22
2018-11-10T09:01:52.822Z,11.22
2018-11-10T09:02:52.855Z,11.26
2018-11-10T09:03:52.810Z,11.23
2018-11-10T09:04:52.810Z,11.36
2018-11-10T09:05:52.801Z,11.32
2018-11-10T09:06:52.796Z,11.44
2018-11-10T09:07:52.790Z,11.48
2018-11-10T09:08:52.783Z,11.45
2018-11-10T09:09:52.864Z,11.45
2018-11-10T09:10:52.774Z,11.57
2018-11-10T09:11:52.767Z,11.63
2018-11-10T09:12:52.764Z,11.68
2018-11-10T09:13:52.780Z,11.73
2018-11-10T09:14:52.792Z,11.75
2018-11-10T09:15:52.776Z,11.84
2018-11-10T09:16:52.744Z,11.75
2018-11-10T09:17:52.781Z,11.88
2018-11-10T09:18:52.731Z,11.86
2018-11-10T09:19:52.735Z,11.94
2018-11-10T09:20:52.717Z,12.04
2018-11-10T09:21:52.716Z,12.13
2018-11-10T09:22:52.712Z,12.09
2018-11-10T09:23:52.711Z,12.17
2018-11-10T09:24:52.708Z,12.29
2018-11-10T09:25:52.696Z,12.24
2018-11-10T09:26:52.691Z,12.27
2018-11-10T09:27:52.683Z,12.32
2018-11-10T09:28:52.678Z,12.32
2018-11-10T09:29:52.679Z,12.29
2018-11-10T09:30:52.709Z,12.29
2018-11-10T09:31:52.668Z,12.37
2018-11-10T09:32:52.664Z,12.40
2018-11-10T09:33:52.662Z,12.37
2018-11-10T09:34:52.650Z,12.37
2018-11-10T09:35:52.657Z,12.49
2018-11-10T09:36:52.645Z,12.46
2018-11-10T09:37:52.642Z,12.50
2018-11-10T09:38:52.635Z,12.47
2018-11-10T09:39:52.631Z,12.47
2018-11-10T09:40:52.628Z,12.54
2018-11-10T09:41:52.679Z,12.61
2018-11-10T09:42:52.620Z,12.62
2018-11-10T09:43:52.613Z,12.62
2018-11-10T09:44:52.608Z,12.70
2018-11-10T09:45:52.609Z,12.70
2018-11-10T09:46:52.600Z,12.72
2018-11-10T09:47:52.595Z,12.80
2018-11-10T09:48:52.594Z,12.75
2018-11-10T09:49:52.627Z,12.83
2018-11-10T09:50:52.620Z,12.86
2018-11-10T09:51:52.580Z,12.90
2018-11-10T09:52:52.584Z,12.85
2018-11-10T09:53:52.592Z,12.87
2018-11-10T09:54:52.583Z,12.98
2018-11-10T09:55:52.562Z,12.91
2018-11-10T09:56:52.556Z,12.94
2018-11-10T09:57:52.567Z,12.98
2018-11-10T09:58:52.553Z,13.08
2018-11-10T09:59:52.544Z,13.08
2018-11-10T10:00:52.679Z,13.03
2018-11-10T10:01:52.718Z,12.97
2018-11-10T10:02:52.720Z,13.01
2018-11-10T10:03:52.525Z,13.11
2018-11-10T10:04:52.523Z,13.09
2018-11-10T10:05:52.520Z,13.15
2018-11-10T10:06:52.514Z,13.11
2018-11-10T10:07:52.518Z,13.05
2018-11-10T10:08:52.575Z,13.08
2018-11-10T10:09:52.506Z,13.20
2018-11-10T10:10:52.527Z,13.13
2018-11-10T10:11:52.493Z,13.27
2018-11-10T10:12:52.491Z,13.22
2018-11-10T10:13:52.485Z,13.18
2018-11-10T10:14:52.479Z,13.22
2018-11-10T10:15:52.514Z,13.22
2018-11-10T10:16:52.473Z,13.30
2018-11-10T10:17:52.470Z,13.27
2018-11-10T10:18:52.466Z,13.42
2018-11-10T10:19:52.469Z,13.37
2018-11-10T10:20:52.461Z,13.39
2018-11-10T10:21:52.520Z,13.37
2018-11-10T10:22:52.448Z,13.41
2018-11-10T10:23:52.447Z,13.42
2018-11-10T10:24:52.439Z,13.49
2018-11-10T10:25:52.436Z,13.49
2018-11-10T10:26:52.432Z,13.50
2018-11-10T10:27:52.430Z,13.44
2018-11-10T10:28:52.448Z,13.57
2018-11-10T10:29:52.420Z,13.56
2018-11-10T10:30:52.417Z,13.60
2018-11-10T10:31:52.413Z,13.65
2018-11-10T10:32:52.407Z,13.57
2018-11-10T10:33:52.422Z,13.65
2018-11-10T10:34:52.425Z,13.71
2018-11-10T10:35:52.398Z,13.67
2018-11-10T10:36:52.395Z,13.70
2018-11-10T10:37:52.388Z,13.77
2018-11-10T10:38:52.386Z,13.78
2018-11-10T10:39:52.386Z,13.83
2018-11-10T10:40:52.376Z,13.81
2018-11-10T10:41:52.377Z,13.85
2018-11-10T10:42:52.398Z,13.85
2018-11-10T10:43:52.374Z,13.97
2018-11-10T10:44:52.363Z,13.93
2018-11-10T10:45:52.360Z,13.96
2018-11-10T10:46:52.417Z,13.95
2018-11-10T10:47:52.354Z,14.00
2018-11-10T10:48:52.507Z,14.04
2018-11-10T10:49:52.346Z,14.08
2018-11-10T10:50:52.340Z,14.08
2018-11-10T10:51:52.340Z,14.14
2018-11-10T10:52:52.336Z,14.14
2018-11-10T10:53:52.333Z,14.12
2018-11-10T10:54:52.328Z,14.15
2018-11-10T10:55:52.388Z,14.12
2018-11-10T10:56:52.324Z,14.17
2018-11-10T10:57:52.318Z,14.12
2018-11-10T10:58:52.314Z,14.10
2018-11-10T10:59:52.310Z,14.22
2018-11-10T11:00:52.314Z,14.15
2018-11-10T11:01:52.302Z,14.15
2018-11-10T11:02:52.350Z,14.26
2018-11-10T11:03:52.299Z,14.28
2018-11-10T11:04:52.293Z,14.29
2018-11-10T11:05:52.290Z,14.23
2018-11-10T11:06:52.286Z,14.23
2018-11-10T11:07:52.283Z,14.43
2018-11-10T11:08:52.332Z,14.35
2018-11-10T11:09:53.278Z,14.37
2018-11-10T11:10:52.281Z,14.41
2018-11-10T11:11:52.300Z,14.50
2018-11-10T11:12:52.269Z,14.47
2018-11-10T11:13:52.261Z,14.48
2018-11-10T11:14:52.259Z,14.58
2018-11-10T11:15:52.302Z,14.58
2018-11-10T11:16:52.253Z,14.58
2018-11-10T11:17:52.272Z,14.50
2018-11-10T11:18:52.269Z,14.55
2018-11-10T11:19:52.250Z,14.60
2018-11-10T11:20:52.238Z,14.63
2018-11-10T11:21:52.295Z,14.66
2018-11-10T11:22:52.237Z,14.63
2018-11-10T11:23:52.232Z,14.72
2018-11-10T11:24:52.227Z,14.69
2018-11-10T11:25:52.229Z,14.81
2018-11-10T11:26:52.217Z,14.72
2018-11-10T11:27:52.221Z,14.78
2018-11-10T11:28:52.227Z,14.81
2018-11-10T11:29:52.307Z,14.89
2018-11-10T11:30:52.308Z,14.79
2018-11-10T11:31:52.206Z,14.94
2018-11-10T11:32:52.205Z,14.96
2018-11-10T11:33:52.260Z,14.94
2018-11-10T11:34:52.209Z,14.91
2018-11-10T11:35:52.202Z,15.03
2018-11-10T11:36:52.238Z,15.06
2018-11-10T11:37:52.193Z,15.00
2018-11-10T11:38:52.188Z,15.03
2018-11-10T11:39:52.184Z,14.97
2018-11-10T11:40:52.185Z,15.11
2018-11-10T11:41:52.264Z,15.10
2018-11-10T11:42:52.176Z,15.10
2018-11-10T11:43:52.176Z,15.10
2018-11-10T11:44:52.170Z,15.17
2018-11-10T11:45:52.197Z,15.14
2018-11-10T11:46:52.178Z,15.18
2018-11-10T11:47:52.165Z,15.10
2018-11-10T11:48:52.159Z,15.11
2018-11-10T11:49:52.209Z,15.11
2018-11-10T11:50:52.161Z,15.15
2018-11-10T11:51:52.153Z,15.14
2018-11-10T11:52:52.177Z,15.24
2018-11-10T11:53:52.148Z,15.25
2018-11-10T11:54:52.146Z,15.21
2018-11-10T11:55:52.150Z,15.22
2018-11-10T11:56:52.144Z,15.18
2018-11-10T11:57:52.225Z,15.17
2018-11-10T11:58:52.135Z,15.25
2018-11-10T11:59:52.133Z,15.15
2018-11-10T12:00:52.129Z,15.25
2018-11-10T12:01:52.128Z,15.21
2018-11-10T12:02:52.126Z,15.28
2018-11-10T12:03:52.119Z,15.25
2018-11-10T12:04:52.121Z,15.27
2018-11-10T12:05:52.125Z,15.31
2018-11-10T12:06:52.116Z,15.29
2018-11-10T12:07:52.125Z,15.39
2018-11-10T12:08:52.262Z,15.39
2018-11-10T12:09:52.107Z,15.39
2018-11-10T12:10:52.106Z,15.37
2018-11-10T12:11:52.101Z,15.43
2018-11-10T12:12:52.100Z,15.43
2018-11-10T12:13:52.097Z,15.43
2018-11-10T12:14:52.097Z,15.43
2018-11-10T12:15:52.094Z,15.52
2018-11-10T12:16:52.208Z,15.51
2018-11-10T12:17:52.093Z,15.54
2018-11-10T12:18:52.089Z,15.52
2018-11-10T12:19:52.245Z,15.49
2018-11-10T12:20:52.149Z,15.57
2018-11-10T12:21:52.144Z,15.62
2018-11-10T12:22:52.075Z,15.54
2018-11-10T12:23:52.075Z,15.62
2018-11-10T12:24:52.072Z,15.59
2018-11-10T12:25:52.068Z,15.58
2018-11-10T12:26:52.121Z,15.61
2018-11-10T12:27:52.116Z,15.62
2018-11-10T12:28:52.062Z,15.67
2018-11-10T12:29:52.058Z,15.59
2018-11-10T12:30:52.066Z,15.67
2018-11-10T12:31:52.139Z,15.82
2018-11-10T12:32:52.757Z,15.67
2018-11-10T12:33:52.050Z,15.73
2018-11-10T12:34:52.053Z,15.79
2018-11-10T12:35:52.057Z,15.75
2018-11-10T12:36:52.048Z,15.76
2018-11-10T12:37:52.044Z,15.73
2018-11-10T12:38:52.145Z,15.80
2018-11-10T12:39:52.040Z,15.76
2018-11-10T12:40:52.825Z,15.80
2018-11-10T12:41:52.207Z,15.80
2018-11-10T12:42:53.987Z,15.80
2018-11-10T12:43:52.489Z,15.77
2018-11-10T12:44:52.401Z,15.75
2018-11-10T12:45:52.429Z,15.83
2018-11-10T12:46:52.940Z,15.86
2018-11-10T12:48:53.118Z,15.90
2018-11-10T12:49:52.463Z,15.88
2018-11-10T12:50:52.053Z,15.83
2018-11-10T12:51:53.431Z,15.90
2018-11-10T12:52:52.194Z,15.83
2018-11-10T12:53:52.182Z,15.90
2018-11-10T12:55:13.038Z,15.84
2018-11-10T12:55:52.014Z,15.80
2018-11-10T12:56:52.009Z,15.88
2018-11-10T12:57:52.061Z,15.92
2018-11-10T12:58:52.066Z,15.92
2018-11-10T12:59:52.023Z,15.83
2018-11-10T13:01:13.060Z,15.91
2018-11-10T13:01:52.001Z,15.95
2018-11-10T13:02:52.000Z,15.82
2018-11-10T13:03:52.004Z,15.91
2018-11-10T13:04:52.004Z,15.88
2018-11-10T13:05:51.992Z,15.90
2018-11-10T13:07:13.039Z,15.88
2018-11-10T13:07:51.992Z,15.92
2018-11-10T13:08:51.993Z,15.91